createdAt,value
2018-09-06T00:00:19.349Z,17.60
2018-09-06T00:04:22.676Z,17.60
2018-09-06T00:08:26.021Z,17.50
2018-09-06T00:12:29.381Z,17.50
2018-09-06T00:16:32.744Z,17.40
2018-09-06T00:20:36.144Z,17.40
2018-09-06T00:24:39.545Z,17.30
2018-09-06T00:28:42.884Z,17.30
2018-09-06T00:32:46.250Z,17.30
2018-09-06T00:36:49.597Z,17.20
2018-09-06T00:40:52.959Z,17.20
2018-09-06T00:44:56.301Z,17.20
2018-09-06T00:49:00.005Z,17.20
2018-09-06T00:53:03.917Z,17.20
2018-09-06T00:57:07.407Z,17.20
2018-09-06T01:01:10.812Z,17.20
2018-09-06T01:05:14.163Z,17.20
2018-09-06T01:09:17.511Z,17.10
2018-09-06T01:13:20.883Z,17.10
2018-09-06T01:17:24.228Z,17.10
2018-09-06T01:21:27.640Z,17.10
2018-09-06T01:25:36.378Z,17.20
2018-09-06T01:29:39.899Z,17.10
2018-09-06T01:33:43.263Z,17.20
2018-09-06T01:37:46.595Z,17.20
2018-09-06T01:41:49.991Z,17.20
2018-09-06T01:45:53.338Z,17.20
2018-09-06T01:49:56.743Z,17.20
2018-09-06T01:54:00.179Z,17.20
2018-09-06T01:58:03.559Z,17.20
2018-09-06T02:02:07.290Z,17.20
2018-09-06T02:06:11.846Z,17.20
2018-09-06T02:10:15.220Z,17.20
2018-09-06T02:14:18.612Z,17.20
2018-09-06T02:18:21.942Z,17.20
2018-09-06T02:22:25.282Z,17.20
2018-09-06T02:26:28.621Z,17.10
2018-09-06T02:30:31.964Z,17.20
2018-09-06T02:34:35.342Z,17.10
2018-09-06T02:38:38.699Z,17.10
2018-09-06T02:42:42.174Z,17.10
2018-09-06T02:46:45.548Z,17.10
2018-09-06T02:50:54.383Z,17.10
2018-09-06T02:54:57.727Z,17.10
2018-09-06T02:59:01.108Z,17.10
2018-09-06T03:03:04.460Z,17.10
2018-09-06T03:07:07.842Z,17.10
2018-09-06T03:11:27.619Z,17.00
2018-09-06T03:15:31.056Z,17.00
2018-09-06T03:19:34.374Z,17.00
2018-09-06T03:23:37.748Z,17.00
2018-09-06T03:27:41.095Z,17.00
2018-09-06T03:31:45.088Z,17.00
2018-09-06T03:35:48.472Z,17.00
2018-09-06T03:39:51.806Z,17.00
2018-09-06T03:43:55.226Z,17.00
2018-09-06T03:47:58.575Z,16.90
2018-09-06T03:52:01.940Z,16.90
2018-09-06T03:56:05.283Z,16.90
2018-09-06T04:00:08.655Z,16.90
2018-09-06T04:04:12.005Z,16.90
2018-09-06T04:08:15.432Z,16.80
2018-09-06T04:12:18.768Z,16.80
2018-09-06T04:16:22.136Z,16.80
2018-09-06T04:20:25.552Z,16.80
2018-09-06T04:24:29.022Z,16.70
2018-09-06T04:28:32.324Z,16.70
2018-09-06T04:32:35.660Z,16.70
2018-09-06T04:36:40.574Z,16.70
2018-09-06T04:40:44.084Z,16.60
2018-09-06T04:44:47.787Z,16.60
2018-09-06T04:48:51.520Z,16.60
2018-09-06T04:52:54.911Z,16.50
2018-09-06T04:56:58.271Z,16.50
2018-09-06T05:01:02.036Z,16.40
2018-09-06T05:05:05.992Z,16.40
2018-09-06T05:09:10.255Z,16.40
2018-09-06T05:13:13.602Z,16.40
2018-09-06T05:17:17.006Z,16.30
2018-09-06T05:21:20.418Z,16.30
2018-09-06T05:25:23.794Z,16.30
2018-09-06T05:29:27.167Z,16.30
2018-09-06T05:33:30.512Z,16.30
2018-09-06T05:37:34.744Z,16.30
2018-09-06T05:41:38.508Z,16.40
2018-09-06T05:45:42.383Z,16.40
2018-09-06T05:49:45.747Z,16.40
2018-09-06T05:53:49.156Z,16.40
2018-09-06T05:57:53.148Z,16.40
2018-09-06T06:01:56.539Z,16.50
2018-09-06T06:05:59.896Z,16.50
2018-09-06T06:10:03.310Z,16.60
2018-09-06T06:14:06.670Z,16.60
2018-09-06T06:18:10.056Z,16.70
2018-09-06T06:22:13.420Z,16.70
2018-09-06T06:26:16.788Z,16.80
2018-09-06T06:30:20.172Z,16.90
2018-09-06T06:34:23.532Z,16.90
2018-09-06T06:38:26.927Z,17.00
2018-09-06T06:42:30.332Z,17.10
2018-09-06T06:46:33.941Z,17.20
2018-09-06T06:50:37.367Z,17.30
2018-09-06T06:54:40.751Z,17.40
2018-09-06T06:58:44.128Z,17.50
2018-09-06T07:02:47.512Z,17.50
2018-09-06T07:06:50.936Z,17.70
2018-09-06T07:10:54.296Z,17.80
2018-09-06T07:14:57.660Z,17.90
2018-09-06T07:19:01.049Z,18.00
2018-09-06T07:23:04.448Z,18.20
2018-09-06T07:27:07.845Z,18.30
2018-09-06T07:31:11.225Z,18.60
2018-09-06T07:35:14.672Z,18.70
2018-09-06T07:39:18.012Z,18.90
2018-09-06T07:43:21.437Z,19.10
2018-09-06T07:47:24.851Z,19.40
2018-09-06T07:51:28.279Z,19.60
2018-09-06T07:55:31.608Z,19.80
2018-09-06T07:59:35.213Z,20.10
2018-09-06T08:03:38.599Z,20.30
2018-09-06T08:07:42.000Z,20.60
2018-09-06T08:11:45.376Z,20.90
2018-09-06T08:15:52.945Z,21.10
2018-09-06T08:19:56.337Z,21.40
2018-09-06T08:23:59.768Z,21.60
2018-09-06T08:28:03.134Z,21.90
2018-09-06T08:32:06.692Z,22.20
2018-09-06T08:36:10.008Z,22.40
2018-09-06T08:40:13.387Z,22.70
2018-09-06T08:44:16.732Z,23.00
2018-09-06T08:48:20.097Z,23.30
2018-09-06T08:52:23.541Z,23.50
2018-09-06T08:56:26.868Z,23.80
2018-09-06T09:00:30.220Z,24.10
2018-09-06T09:04:33.611Z,24.30
2018-09-06T09:08:36.991Z,24.60
2018-09-06T09:12:40.391Z,24.80
2018-09-06T09:16:43.750Z,25.00
2018-09-06T09:20:47.176Z,25.20
2018-09-06T09:24:50.515Z,25.40
2018-09-06T09:28:53.902Z,25.50
2018-09-06T09:32:57.339Z,25.60
2018-09-06T09:37:00.693Z,25.80
2018-09-06T09:41:04.079Z,25.90
2018-09-06T09:45:07.431Z,26.10
2018-09-06T09:49:10.780Z,26.30
2018-09-06T09:53:14.125Z,26.50
2018-09-06T09:57:17.788Z,26.70
2018-09-06T10:01:21.142Z,27.00
2018-09-06T10:05:29.858Z,27.20
2018-09-06T10:09:33.241Z,27.30
2018-09-06T10:13:36.583Z,27.60
2018-09-06T10:17:39.927Z,27.80
2018-09-06T10:21:43.559Z,28.00
2018-09-06T10:25:46.932Z,28.10
2018-09-06T10:29:50.285Z,28.20
2018-09-06T10:33:53.653Z,28.20
2018-09-06T10:37:57.031Z,28.40
2018-09-06T10:42:00.382Z,28.60
2018-09-06T10:46:03.735Z,28.80
2018-09-06T10:50:07.109Z,29.00
2018-09-06T10:54:10.481Z,29.10
2018-09-06T10:58:13.800Z,29.20
2018-09-06T11:02:17.244Z,29.30
2018-09-06T11:06:20.664Z,29.30
2018-09-06T11:10:24.064Z,29.40
2018-09-06T11:14:27.450Z,29.40
2018-09-06T11:18:30.780Z,29.40
2018-09-06T11:22:34.368Z,29.40
2018-09-06T11:26:37.557Z,29.40
2018-09-06T11:30:41.038Z,29.40
2018-09-06T11:34:44.416Z,29.40
2018-09-06T11:38:47.753Z,29.50
2018-09-06T11:42:51.117Z,29.50
2018-09-06T11:46:54.532Z,29.50
2018-09-06T11:51:03.217Z,29.40
2018-09-06T11:55:06.799Z,29.50
2018-09-06T11:59:10.132Z,29.40
2018-09-06T12:03:14.117Z,29.40
2018-09-06T12:07:17.479Z,29.40
2018-09-06T12:11:20.892Z,29.20
2018-09-06T12:15:24.255Z,29.10
2018-09-06T12:19:27.648Z,29.00
2018-09-06T12:23:30.992Z,28.90
2018-09-06T12:27:34.497Z,28.70
2018-09-06T12:31:37.982Z,28.50
2018-09-06T12:35:41.321Z,28.30
2018-09-06T12:39:45.769Z,28.00
2018-09-06T12:43:49.132Z,27.80
2018-09-06T12:47:52.523Z,27.60
2018-09-06T12:51:55.888Z,27.30
2018-09-06T12:55:59.324Z,27.10
2018-09-06T13:00:02.753Z,26.90
2018-09-06T13:04:06.552Z,26.60
2018-09-06T13:08:10.032Z,26.30
2018-09-06T13:12:13.352Z,26.00
2018-09-06T13:16:16.707Z,25.80
2018-09-06T13:20:20.063Z,25.50
2018-09-06T13:24:23.411Z,25.40
2018-09-06T13:28:26.939Z,25.20
2018-09-06T13:32:30.288Z,25.00
2018-09-06T13:36:33.633Z,24.80
2018-09-06T13:40:36.972Z,24.60
2018-09-06T13:44:40.325Z,24.50
2018-09-06T13:48:43.671Z,24.30
2018-09-06T13:52:47.052Z,24.20
2018-09-06T13:56:50.503Z,24.00
2018-09-06T14:00:53.838Z,23.90
2018-09-06T14:04:57.340Z,23.80
2018-09-06T14:09:00.856Z,23.70
2018-09-06T14:13:04.227Z,23.60
2018-09-06T14:17:08.255Z,23.60
2018-09-06T14:21:11.636Z,23.50
2018-09-06T14:25:15.027Z,23.50
2018-09-06T14:29:18.384Z,23.50
2018-09-06T14:33:21.770Z,23.50
2018-09-06T14:37:25.197Z,23.50
2018-09-06T14:41:28.585Z,23.50
2018-09-06T14:45:32.260Z,23.50
2018-09-06T14:49:36.101Z,23.50
2018-09-06T14:53:40.161Z,23.50
2018-09-06T14:57:43.736Z,23.50
2018-09-06T15:01:47.709Z,23.40
2018-09-06T15:05:51.440Z,23.40
2018-09-06T15:09:55.057Z,23.40
2018-09-06T15:13:59.590Z,23.30
2018-09-06T15:18:03.110Z,23.30
2018-09-06T15:22:06.933Z,23.20
2018-09-06T15:26:10.466Z,23.20
2018-09-06T15:30:14.263Z,23.10
2018-09-06T15:34:18.062Z,23.10
2018-09-06T15:38:21.677Z,23.00
2018-09-06T15:42:25.250Z,23.00
2018-09-06T15:46:28.822Z,22.90
2018-09-06T15:50:33.302Z,22.80
2018-09-06T15:54:36.853Z,22.80
2018-09-06T15:58:40.511Z,22.80
2018-09-06T16:02:44.247Z,22.70
2018-09-06T16:06:47.855Z,22.70
2018-09-06T16:10:51.602Z,22.70
2018-09-06T16:14:55.159Z,22.70
2018-09-06T16:18:58.625Z,22.60
2018-09-06T16:23:02.324Z,22.60
2018-09-06T16:27:06.276Z,22.70
2018-09-06T16:31:10.124Z,22.70
2018-09-06T16:35:13.765Z,22.90
2018-09-06T16:39:17.423Z,23.10
2018-09-06T16:43:24.796Z,23.40
2018-09-06T16:47:28.397Z,23.50
2018-09-06T16:51:32.153Z,23.60
2018-09-06T16:55:35.776Z,23.60
2018-09-06T16:59:39.626Z,23.60
2018-09-06T17:03:43.200Z,23.50
2018-09-06T17:07:52.300Z,23.40
2018-09-06T17:11:55.842Z,23.40
2018-09-06T17:16:00.293Z,23.30
2018-09-06T17:20:03.967Z,23.20
2018-09-06T17:24:07.594Z,23.10
2018-09-06T17:28:11.966Z,23.00
2018-09-06T17:32:15.717Z,22.90
2018-09-06T17:36:19.380Z,22.80
2018-09-06T17:40:23.268Z,22.80
2018-09-06T17:44:26.848Z,22.70
2018-09-06T17:48:30.511Z,22.60
2018-09-06T17:52:34.181Z,22.50
2018-09-06T17:56:37.715Z,22.50
2018-09-06T18:00:44.687Z,22.40
2018-09-06T18:04:48.170Z,22.30
2018-09-06T18:08:51.738Z,22.20
2018-09-06T18:12:55.424Z,22.10
2018-09-06T18:16:59.078Z,22.00
2018-09-06T18:21:02.821Z,22.00
2018-09-06T18:25:06.735Z,21.90
2018-09-06T18:29:10.466Z,21.90
2018-09-06T18:33:14.130Z,21.80
2018-09-06T18:37:17.747Z,21.80
2018-09-06T18:41:21.284Z,21.70
2018-09-06T18:45:25.133Z,21.60
2018-09-06T18:49:33.197Z,21.60
2018-09-06T18:53:36.732Z,21.50
2018-09-06T18:57:40.629Z,21.50
2018-09-06T19:01:44.268Z,21.40
2018-09-06T19:05:47.882Z,21.40
2018-09-06T19:09:51.720Z,21.30
2018-09-06T19:13:55.198Z,21.30
2018-09-06T19:17:59.028Z,21.20
2018-09-06T19:22:02.618Z,21.20
2018-09-06T19:26:06.385Z,21.10
2018-09-06T19:30:10.293Z,21.10
2018-09-06T19:34:13.878Z,21.00
2018-09-06T19:38:17.638Z,21.00
2018-09-06T19:42:21.242Z,20.90
2018-09-06T19:46:25.003Z,20.80
2018-09-06T19:50:28.683Z,20.80
2018-09-06T19:54:32.488Z,20.70
2018-09-06T19:58:36.153Z,20.60
2018-09-06T20:02:39.894Z,20.50
2018-09-06T20:06:43.460Z,20.50
2018-09-06T20:10:48.056Z,20.40
2018-09-06T20:14:51.707Z,20.30
2018-09-06T20:18:55.578Z,20.30
2018-09-06T20:22:59.125Z,20.20
2018-09-06T20:27:02.491Z,20.20
2018-09-06T20:31:06.978Z,20.20
2018-09-06T20:35:10.466Z,20.20
2018-09-06T20:39:14.613Z,20.10
2018-09-06T20:43:18.482Z,20.00
2018-09-06T20:47:22.281Z,20.00
2018-09-06T20:51:25.732Z,20.00
2018-09-06T20:55:29.283Z,20.00
2018-09-06T20:59:33.616Z,19.90
2018-09-06T21:03:37.228Z,19.90
2018-09-06T21:07:40.860Z,19.90
2018-09-06T21:11:44.587Z,19.90
2018-09-06T21:15:48.368Z,19.90
2018-09-06T21:19:51.876Z,19.90
2018-09-06T21:23:55.363Z,19.90
2018-09-06T21:27:59.850Z,19.90
2018-09-06T21:32:04.077Z,19.90
2018-09-06T21:36:07.701Z,19.90
2018-09-06T21:40:12.237Z,19.90
2018-09-06T21:44:16.460Z,19.90
2018-09-06T21:48:20.479Z,19.90
2018-09-06T21:52:23.830Z,19.90
2018-09-06T21:56:27.188Z,19.90
2018-09-06T22:00:31.428Z,19.90
2018-09-06T22:04:34.816Z,19.90
2018-09-06T22:08:38.212Z,19.90
2018-09-06T22:12:41.572Z,19.90
2018-09-06T22:16:44.921Z,19.90
2018-09-06T22:20:48.291Z,19.90
2018-09-06T22:24:51.636Z,19.90
2018-09-06T22:28:55.027Z,19.90
2018-09-06T22:32:58.367Z,19.90
2018-09-06T22:37:01.799Z,19.90
2018-09-06T22:41:05.495Z,19.90
2018-09-06T22:45:08.847Z,19.90
2018-09-06T22:49:12.233Z,19.90
2018-09-06T22:53:16.702Z,19.90
2018-09-06T22:57:20.084Z,19.90
2018-09-06T23:01:23.437Z,19.90
2018-09-06T23:05:26.836Z,19.90
2018-09-06T23:09:30.271Z,19.80
2018-09-06T23:13:33.774Z,19.80
2018-09-06T23:17:37.119Z,19.80
2018-09-06T23:21:40.449Z,19.70
2018-09-06T23:25:43.803Z,19.70
2018-09-06T23:29:47.143Z,19.70
2018-09-06T23:33:50.782Z,19.70
2018-09-06T23:37:54.805Z,19.60
2018-09-06T23:41:58.168Z,19.60
2018-09-06T23:46:01.508Z,19.60
2018-09-06T23:50:04.911Z,19.50
2018-09-06T23:54:08.292Z,19.50
2018-09-06T23:58:11.660Z,19.50
